Open Full Screen Window  High Contrast Mode
Wind Gusting 00 knots
06
November 27, 2014 10:44 AM EST
Weather Information
Wind Direction
  310 °
Wind Speed
  06 kt (7 mph)
Wind Gust
  00 kt (0 mph)
Altimeter
30.17 in
Visibility
7 SM
Temperature
-01° C
30° F
Dewpoint
-04° C
25° F
Humidity
80%
1hr Rain Fall
00.00 in.
24hr Rain Fall
00.00 in.
Sky Condition
Overcast @ 1,700 ft
MVFR

METAR KIKW 271544Z AUTO 31006KT 7SM OVC017 M01/M04 A3017 RMK AO2 T10101045

*Background is not an actual portrayal of the airport.